createdAt,value
2024-04-22T00:01:53.673Z,53697.02
2024-04-22T00:04:20.297Z,53667.62
2024-04-22T00:06:47.089Z,53682.52
2024-04-22T00:09:14.329Z,53672.58
2024-04-22T00:11:41.407Z,53687.08
2024-04-22T00:14:10.758Z,53669.69
2024-04-22T00:16:37.471Z,53660.57
2024-04-22T00:19:04.063Z,53684.18
2024-04-22T00:21:30.992Z,53664.30
2024-04-22T00:23:57.554Z,53666.37
2024-04-22T00:26:23.987Z,53673.00
2024-04-22T00:28:51.372Z,53665.96
2024-04-22T00:31:17.788Z,53655.60
2024-04-22T00:33:44.305Z,53662.64
2024-04-22T00:36:11.100Z,53673.41
2024-04-22T00:38:37.801Z,53639.04
2024-04-22T00:41:04.376Z,53636.96
2024-04-22T00:43:34.072Z,53630.75
2024-04-22T00:46:00.808Z,53630.75
2024-04-22T00:48:28.235Z,53645.25
2024-04-22T00:50:56.110Z,53624.54
2024-04-22T00:53:23.008Z,53602.58
2024-04-22T00:55:51.037Z,53629.09
2024-04-22T00:58:18.718Z,53646.49
2024-04-22T01:00:49.505Z,53629.09
2024-04-22T01:03:16.597Z,53617.91
2024-04-22T01:05:43.269Z,53647.73
2024-04-22T01:08:10.709Z,53668.45
2024-04-22T01:10:37.323Z,53639.45
2024-04-22T01:13:06.157Z,53640.27
2024-04-22T01:15:32.906Z,53623.71
2024-04-22T01:17:59.450Z,53609.21
2024-04-22T01:20:26.468Z,53605.07
2024-04-22T01:22:53.194Z,53600.51
2024-04-22T01:25:22.926Z,53588.09
2024-04-22T01:27:50.239Z,53613.77
2024-04-22T01:30:17.222Z,53591.41
2024-04-22T01:32:43.778Z,53621.64
2024-04-22T01:35:10.957Z,53656.02
2024-04-22T01:37:37.828Z,53658.09
2024-04-22T01:40:05.218Z,53664.71
2024-04-22T01:42:31.671Z,53638.62
2024-04-22T01:44:58.408Z,53634.48
2024-04-22T01:47:24.920Z,53614.59
2024-04-22T01:49:51.481Z,53622.05
2024-04-22T01:52:18.090Z,53611.70
2024-04-22T01:54:44.652Z,53622.89
2024-04-22T01:57:11.213Z,53621.64
2024-04-22T01:59:37.917Z,53641.52
2024-04-22T02:02:04.924Z,53627.44
2024-04-22T02:04:31.467Z,53614.60
2024-04-22T02:06:58.298Z,53608.80
2024-04-22T02:09:24.716Z,53622.88
2024-04-22T02:11:51.762Z,53600.93
2024-04-22T02:14:18.395Z,53593.05
2024-04-22T02:16:47.177Z,53586.85
2024-04-22T02:19:13.936Z,53595.13
2024-04-22T02:21:40.404Z,53620.39
2024-04-22T02:24:06.977Z,53612.52
2024-04-22T02:26:33.586Z,53588.09
2024-04-22T02:29:00.053Z,53572.35
2024-04-22T02:31:26.537Z,53561.58
2024-04-22T02:33:53.139Z,53562.41
2024-04-22T02:36:19.829Z,53568.62
2024-04-22T02:38:46.292Z,53605.90
2024-04-22T02:41:12.846Z,53611.28
2024-04-22T02:43:39.471Z,53613.36
2024-04-22T02:46:06.812Z,53598.86
2024-04-22T02:48:33.271Z,53589.33
2024-04-22T02:51:03.710Z,53585.60
2024-04-22T02:53:30.440Z,53594.72
2024-04-22T02:55:57.081Z,53553.30
2024-04-22T02:58:23.603Z,53607.55
2024-04-22T03:00:54.966Z,53602.17
2024-04-22T03:03:23.119Z,53577.32
2024-04-22T03:05:49.583Z,53607.98
2024-04-22T03:08:16.340Z,53592.23
2024-04-22T03:10:43.216Z,53583.95
2024-04-22T03:13:13.082Z,53601.34
2024-04-22T03:15:40.058Z,53600.52
2024-04-22T03:18:07.123Z,53607.14
2024-04-22T03:20:37.309Z,53624.13
2024-04-22T03:23:04.290Z,53606.73
2024-04-22T03:25:30.950Z,53611.28
2024-04-22T03:27:57.387Z,53617.91
2024-04-22T03:30:23.909Z,53578.56
2024-04-22T03:32:50.444Z,53605.90
2024-04-22T03:35:17.103Z,53610.87
2024-04-22T03:37:43.613Z,53622.88
2024-04-22T03:40:13.203Z,53627.02
2024-04-22T03:42:39.709Z,53624.95
2024-04-22T03:45:06.607Z,53625.78
2024-04-22T03:47:51.795Z,53639.45
2024-04-22T03:50:18.261Z,53621.64
2024-04-22T03:52:44.838Z,53619.98
2024-04-22T03:55:11.340Z,53635.30
2024-04-22T03:57:38.025Z,53640.70
2024-04-22T04:00:05.149Z,53638.21
2024-04-22T04:02:33.812Z,53629.51
2024-04-22T04:05:00.591Z,53615.43
2024-04-22T04:07:27.176Z,53609.21
2024-04-22T04:09:53.629Z,53590.16
2024-04-22T04:12:20.100Z,53595.96
2024-04-22T04:14:46.571Z,53610.46
2024-04-22T04:17:13.234Z,53615.01
2024-04-22T04:19:39.680Z,53629.51
2024-04-22T04:22:06.149Z,53595.96
2024-04-22T04:24:32.565Z,53581.88
2024-04-22T04:26:58.999Z,53595.96
2024-04-22T04:29:25.414Z,53600.10
2024-04-22T04:31:51.891Z,53617.08
2024-04-22T04:34:18.939Z,53603.00
2024-04-22T04:36:45.528Z,53620.81
2024-04-22T04:39:12.235Z,53644.01
2024-04-22T04:41:39.387Z,53632.82
2024-04-22T04:44:05.784Z,53636.55
2024-04-22T04:46:32.288Z,53620.81
2024-04-22T04:48:58.963Z,53633.65
2024-04-22T04:51:25.575Z,53624.54
2024-04-22T04:53:51.967Z,53626.20
2024-04-22T04:56:18.444Z,53651.04
2024-04-22T04:58:44.962Z,53619.57
2024-04-22T05:01:11.737Z,53608.80
2024-04-22T05:03:41.071Z,53617.50
2024-04-22T05:06:07.702Z,53597.61
2024-04-22T05:08:34.454Z,53612.11
2024-04-22T05:11:04.877Z,53621.23
2024-04-22T05:13:31.426Z,53605.07
2024-04-22T05:15:58.065Z,53619.57
2024-04-22T05:18:24.502Z,53601.76
2024-04-22T05:20:52.551Z,53624.54
2024-04-22T05:23:19.309Z,53633.24
2024-04-22T05:29:08.557Z,53465.09
2024-04-22T05:31:34.547Z,53586.43
2024-04-22T05:34:19.474Z,53601.76
2024-04-22T05:36:45.634Z,53574.84
2024-04-22T05:39:11.609Z,53619.15
2024-04-22T05:41:39.278Z,53635.31
2024-04-22T05:44:05.857Z,53627.02
2024-04-22T05:46:31.842Z,53653.95
2024-04-22T05:48:57.902Z,53638.21
2024-04-22T05:51:23.899Z,53610.88
2024-04-22T05:53:50.050Z,53600.51
2024-04-22T05:56:15.999Z,53612.11
2024-04-22T05:58:42.256Z,53631.57
2024-04-22T06:01:08.930Z,53677.55
2024-04-22T06:03:35.094Z,53631.16
2024-04-22T06:12:20.536Z,53506.51
2024-04-22T06:14:47.346Z,53641.94
2024-04-22T06:17:16.076Z,53648.56
2024-04-22T06:19:42.665Z,53677.55
2024-04-22T06:22:11.611Z,53700.75
2024-04-22T06:24:40.260Z,53649.80
2024-04-22T06:27:07.172Z,53634.89
2024-04-22T06:29:33.814Z,53638.21
2024-04-22T06:32:00.485Z,53634.48
2024-04-22T06:34:27.321Z,53650.63
2024-04-22T06:36:54.125Z,53648.15
2024-04-22T06:39:22.414Z,53669.27
2024-04-22T06:41:51.005Z,53698.68
2024-04-22T06:44:17.572Z,53711.11
2024-04-22T06:46:44.156Z,53687.91
2024-04-22T06:49:10.594Z,53687.91
2024-04-22T06:51:37.047Z,53686.66
2024-04-22T06:54:04.042Z,53658.91
2024-04-22T06:56:30.618Z,53647.74
2024-04-22T06:58:57.412Z,53666.37
2024-04-22T07:01:31.500Z,53667.61
2024-04-22T07:04:05.932Z,53709.03
2024-04-22T07:06:32.723Z,53675.07
2024-04-22T07:08:59.643Z,53686.25
2024-04-22T07:11:26.836Z,53660.99
2024-04-22T07:13:53.589Z,53658.92
2024-04-22T07:16:20.859Z,53634.06
2024-04-22T07:18:48.281Z,53671.76
2024-04-22T07:21:15.705Z,53674.24
2024-04-22T07:23:45.295Z,53675.49
2024-04-22T07:26:12.011Z,53687.50
2024-04-22T07:28:39.005Z,53694.54
2024-04-22T07:31:05.887Z,53676.31
2024-04-22T07:33:32.977Z,53680.46
2024-04-22T07:36:17.880Z,53717.73
2024-04-22T07:38:47.885Z,53732.64
2024-04-22T07:41:22.477Z,53682.52
2024-04-22T07:43:50.348Z,53718.56
2024-04-22T07:46:17.403Z,53700.34
2024-04-22T07:48:43.952Z,53670.10
2024-04-22T07:51:13.584Z,53667.61
2024-04-22T07:53:40.378Z,53685.43
2024-04-22T07:56:17.461Z,53721.04
2024-04-22T07:58:45.851Z,53713.59
2024-04-22T08:01:14.217Z,53736.79
2024-04-22T08:03:44.567Z,53716.49
2024-04-22T08:06:17.996Z,53735.13
2024-04-22T08:08:44.667Z,53744.66
2024-04-22T08:11:13.907Z,53717.73
2024-04-22T08:13:40.693Z,53746.73
2024-04-22T08:16:07.449Z,53700.34
2024-04-22T08:18:34.741Z,53717.32
2024-04-22T08:21:03.029Z,53777.79
2024-04-22T08:23:31.162Z,53719.80
2024-04-22T08:25:58.070Z,53712.34
2024-04-22T08:28:25.791Z,53705.30
2024-04-22T08:31:04.412Z,53705.72
2024-04-22T08:33:31.410Z,53741.34
2024-04-22T08:35:58.822Z,53711.11
2024-04-22T08:38:25.835Z,53716.90
2024-04-22T08:40:53.117Z,53726.02
2024-04-22T08:43:20.340Z,53689.98
2024-04-22T08:45:48.223Z,53720.21
2024-04-22T08:48:15.317Z,53698.68
2024-04-22T08:50:42.322Z,53716.91
2024-04-22T08:53:10.596Z,53704.06
2024-04-22T08:55:40.556Z,53720.22
2024-04-22T08:58:08.202Z,53681.70
2024-04-22T09:00:35.028Z,53703.24
2024-04-22T09:03:02.213Z,53715.25
2024-04-22T09:05:29.931Z,53767.02
2024-04-22T09:08:05.753Z,53742.99
2024-04-22T09:11:05.428Z,53730.16
2024-04-22T09:13:20.636Z,53716.07
2024-04-22T09:15:54.169Z,53689.98
2024-04-22T09:18:21.297Z,53717.32
2024-04-22T09:20:47.957Z,53732.23
2024-04-22T09:23:18.244Z,53747.55
2024-04-22T09:25:45.049Z,53779.86
2024-04-22T09:28:12.707Z,53761.64
2024-04-22T09:30:42.045Z,53741.76
2024-04-22T09:33:11.113Z,53752.94
2024-04-22T09:35:39.909Z,53747.14
2024-04-22T09:38:10.651Z,53733.05
2024-04-22T09:40:40.487Z,53745.48
2024-04-22T09:43:07.003Z,53730.99
2024-04-22T09:45:34.218Z,53761.64
2024-04-22T09:48:01.615Z,53792.29
2024-04-22T09:50:31.428Z,53848.21
2024-04-22T09:53:01.761Z,53809.68
2024-04-22T09:55:31.129Z,53804.72
2024-04-22T09:58:01.047Z,53728.09
2024-04-22T10:00:27.644Z,53790.63
2024-04-22T10:02:54.416Z,53847.79
2024-04-22T10:05:23.658Z,53728.09
2024-04-22T10:07:50.501Z,53703.65
2024-04-22T10:10:19.608Z,53722.29
2024-04-22T10:12:46.417Z,53767.02
2024-04-22T10:15:14.981Z,53773.65
2024-04-22T10:17:43.609Z,53787.32
2024-04-22T10:20:18.316Z,53769.93
2024-04-22T10:22:46.389Z,53781.11
2024-04-22T10:25:18.965Z,53779.04
2024-04-22T10:27:45.671Z,53735.54
2024-04-22T10:30:12.490Z,53697.02
2024-04-22T10:32:39.430Z,53740.93
2024-04-22T10:35:06.152Z,53752.94
2024-04-22T10:37:32.851Z,53730.57
2024-04-22T10:39:59.491Z,53762.05
2024-04-22T10:42:29.128Z,53763.71
2024-04-22T10:44:55.750Z,53755.01
2024-04-22T10:47:22.450Z,53766.20
2024-04-22T10:49:49.208Z,53743.82
2024-04-22T10:52:15.792Z,53795.19
2024-04-22T10:54:42.237Z,53780.27
2024-04-22T10:57:09.179Z,53793.54
2024-04-22T11:02:36.187Z,53561.59
2024-04-22T11:05:04.276Z,53763.29
2024-04-22T11:07:31.812Z,53752.11
2024-04-22T11:09:59.146Z,53772.82
2024-04-22T11:12:28.760Z,53764.95
2024-04-22T11:14:57.983Z,53733.89
2024-04-22T11:17:24.928Z,53685.43
2024-04-22T11:19:51.925Z,53693.29
2024-04-22T11:22:21.123Z,53702.82
2024-04-22T11:24:48.568Z,53702.82
2024-04-22T11:27:15.734Z,53701.58
2024-04-22T11:29:42.318Z,53706.55
2024-04-22T11:32:10.521Z,53695.37
2024-04-22T11:34:36.972Z,53728.09
2024-04-22T11:37:03.604Z,53718.56
2024-04-22T11:39:30.283Z,53698.68
2024-04-22T11:41:57.705Z,53675.48
2024-04-22T11:44:24.933Z,53662.64
2024-04-22T11:46:51.463Z,53682.52
2024-04-22T11:49:18.174Z,53706.96
2024-04-22T11:51:44.679Z,53705.71
2024-04-22T11:54:11.350Z,53710.69
2024-04-22T11:56:39.058Z,53738.44
2024-04-22T11:59:05.899Z,53700.34
2024-04-22T12:01:33.384Z,53701.57
2024-04-22T12:04:00.490Z,53728.92
2024-04-22T12:06:28.299Z,53792.29
2024-04-22T12:08:54.829Z,53744.66
2024-04-22T12:11:21.384Z,53694.54
2024-04-22T12:13:47.984Z,53689.56
2024-04-22T12:16:14.577Z,53692.46
2024-04-22T12:18:41.178Z,53686.67
2024-04-22T12:21:08.711Z,53690.39
2024-04-22T12:23:35.217Z,53657.68
2024-04-22T12:26:01.807Z,53670.10
2024-04-22T12:28:28.322Z,53668.02
2024-04-22T12:30:55.374Z,53669.69
2024-04-22T12:33:22.005Z,53694.53
2024-04-22T12:35:48.575Z,53692.46
2024-04-22T12:38:15.243Z,53663.48
2024-04-22T12:40:41.809Z,53677.97
2024-04-22T12:43:11.757Z,53691.64
2024-04-22T12:45:41.829Z,53713.59
2024-04-22T12:48:28.224Z,53675.90
2024-04-22T12:50:57.412Z,53685.84
2024-04-22T12:53:24.565Z,53678.39
2024-04-22T12:55:51.180Z,53659.74
2024-04-22T12:58:17.663Z,53673.00
2024-04-22T13:00:44.182Z,53694.13
2024-04-22T13:03:10.892Z,53687.49
2024-04-22T13:05:37.470Z,53673.00
2024-04-22T13:08:04.282Z,53669.69
2024-04-22T13:10:31.207Z,53673.41
2024-04-22T13:12:57.820Z,53692.46
2024-04-22T13:15:24.289Z,53669.69
2024-04-22T13:17:51.426Z,53678.38
2024-04-22T13:20:18.041Z,53698.68
2024-04-22T13:22:44.672Z,53686.26
2024-04-22T13:25:11.448Z,53668.45
2024-04-22T13:27:38.093Z,53674.66
2024-04-22T13:30:09.953Z,53665.54
2024-04-22T13:32:41.169Z,53705.30
2024-04-22T13:35:07.701Z,53669.68
2024-04-22T13:37:34.663Z,53718.98
2024-04-22T13:40:01.205Z,53687.08
2024-04-22T13:42:32.092Z,53730.57
2024-04-22T13:45:01.002Z,53717.32
2024-04-22T13:47:27.631Z,53737.20
2024-04-22T13:49:54.035Z,53678.38
2024-04-22T13:52:21.120Z,53678.38
2024-04-22T13:54:47.597Z,53673.00
2024-04-22T13:57:34.296Z,53506.92
2024-04-22T14:00:00.662Z,53637.38
2024-04-22T14:02:27.146Z,53630.34
2024-04-22T14:04:53.665Z,53641.93
2024-04-22T14:07:20.224Z,53668.45
2024-04-22T14:09:46.883Z,53655.60
2024-04-22T14:12:13.997Z,53633.24
2024-04-22T14:14:40.505Z,53649.80
2024-04-22T14:17:08.467Z,53641.94
2024-04-22T14:19:35.476Z,53651.88
2024-04-22T14:22:03.234Z,53659.74
2024-04-22T14:24:29.804Z,53667.61
2024-04-22T14:26:56.260Z,53682.95
2024-04-22T14:29:22.790Z,53651.04
2024-04-22T14:31:49.278Z,53661.40
2024-04-22T14:34:15.896Z,53675.90
2024-04-22T14:36:42.384Z,53687.91
2024-04-22T14:39:08.912Z,53723.11
2024-04-22T14:41:35.351Z,53726.02
2024-04-22T14:44:01.987Z,53690.81
2024-04-22T14:46:28.956Z,53700.75
2024-04-22T14:48:55.999Z,53692.46
2024-04-22T14:51:22.509Z,53666.79
2024-04-22T14:53:50.466Z,53663.88
2024-04-22T14:56:17.122Z,53645.66
2024-04-22T14:58:43.632Z,53648.15
2024-04-22T15:01:10.192Z,53639.45
2024-04-22T15:03:37.507Z,53660.57
2024-04-22T15:06:04.382Z,53665.13
2024-04-22T15:08:31.016Z,53647.73
2024-04-22T15:10:57.565Z,53660.57
2024-04-22T15:13:24.079Z,53647.32
2024-04-22T15:15:50.691Z,53660.99
2024-04-22T15:18:17.238Z,53653.53
2024-04-22T15:20:43.949Z,53634.06
2024-04-22T15:23:10.632Z,53651.88
2024-04-22T15:25:37.324Z,53633.65
2024-04-22T15:28:04.023Z,53610.46
2024-04-22T15:30:30.489Z,53638.21
2024-04-22T15:32:57.127Z,53663.05
2024-04-22T15:35:23.643Z,53676.73
2024-04-22T15:37:51.884Z,53694.54
2024-04-22T15:40:18.764Z,53667.20
2024-04-22T15:42:45.253Z,53654.36
2024-04-22T15:45:11.733Z,53651.04
2024-04-22T15:47:38.402Z,53629.10
2024-04-22T15:50:05.229Z,53614.60
2024-04-22T15:52:31.923Z,53651.46
2024-04-22T15:54:58.338Z,53623.71
2024-04-22T15:57:24.817Z,53660.57
2024-04-22T15:59:58.944Z,53637.79
2024-04-22T16:02:33.347Z,53645.66
2024-04-22T16:04:59.849Z,53656.84
2024-04-22T16:07:26.532Z,53643.18
2024-04-22T16:09:52.916Z,53664.30
2024-04-22T16:12:19.569Z,53663.89
2024-04-22T16:14:48.393Z,53636.96
2024-04-22T16:17:15.021Z,53636.96
2024-04-22T16:19:41.721Z,53687.08
2024-04-22T16:22:08.208Z,53668.45
2024-04-22T16:24:34.727Z,53678.38
2024-04-22T16:27:02.925Z,53648.98
2024-04-22T16:29:29.449Z,53648.15
2024-04-22T16:31:55.955Z,53643.18
2024-04-22T16:34:22.502Z,53657.26
2024-04-22T16:36:48.963Z,53688.74
2024-04-22T16:39:15.428Z,53675.07
2024-04-22T16:41:41.955Z,53658.09
2024-04-22T16:44:08.545Z,53658.50
2024-04-22T16:46:34.987Z,53659.32
2024-04-22T16:49:01.439Z,53671.34
2024-04-22T16:51:27.854Z,53660.16
2024-04-22T16:53:54.202Z,53675.49
2024-04-22T16:56:20.590Z,53654.77
2024-04-22T16:58:47.168Z,53629.93
2024-04-22T17:01:13.736Z,53637.38
2024-04-22T17:03:40.290Z,53670.51
2024-04-22T17:06:06.771Z,53653.95
2024-04-22T17:08:33.302Z,53642.76
2024-04-22T17:11:08.864Z,53617.08
2024-04-22T17:13:35.391Z,53617.08
2024-04-22T17:16:01.811Z,53634.48
2024-04-22T17:18:28.489Z,53635.30
2024-04-22T17:20:55.686Z,53615.01
2024-04-22T17:23:22.575Z,53617.91
2024-04-22T17:25:49.545Z,53655.61
2024-04-22T17:28:20.922Z,53630.34
2024-04-22T17:30:51.257Z,53667.62
2024-04-22T17:33:17.896Z,53673.83
2024-04-22T17:35:44.734Z,53651.88
2024-04-22T17:38:11.171Z,53644.01
2024-04-22T17:40:37.973Z,53630.34
2024-04-22T17:43:04.779Z,53634.89
2024-04-22T17:45:31.242Z,53644.42
2024-04-22T17:47:57.893Z,53637.38
2024-04-22T17:50:24.351Z,53641.52
2024-04-22T17:52:50.984Z,53639.45
2024-04-22T17:55:17.603Z,53666.37
2024-04-22T17:57:44.086Z,53625.37
2024-04-22T18:00:12.327Z,53654.36
2024-04-22T18:02:40.772Z,53638.62
2024-04-22T18:05:07.486Z,53618.74
2024-04-22T18:07:34.007Z,53622.47
2024-04-22T18:10:00.413Z,53631.99
2024-04-22T18:12:26.894Z,53644.83
2024-04-22T18:14:53.342Z,53639.45
2024-04-22T18:17:19.775Z,53631.99
2024-04-22T18:19:46.269Z,53640.27
2024-04-22T18:22:17.432Z,53645.25
2024-04-22T18:24:47.427Z,53628.26
2024-04-22T18:27:13.836Z,53636.55
2024-04-22T18:29:40.426Z,53610.04
2024-04-22T18:32:07.308Z,53626.20
2024-04-22T18:34:35.855Z,53634.89
2024-04-22T18:37:03.472Z,53618.74
2024-04-22T18:39:29.973Z,53619.15
2024-04-22T18:41:56.445Z,53621.64
2024-04-22T18:44:24.901Z,53618.74
2024-04-22T18:46:51.416Z,53619.98
2024-04-22T18:49:17.996Z,53624.13
2024-04-22T18:51:44.447Z,53619.57
2024-04-22T18:54:10.895Z,53635.30
2024-04-22T18:56:37.351Z,53638.21
2024-04-22T18:59:03.910Z,53642.76
2024-04-22T19:01:31.538Z,53635.30
2024-04-22T19:03:58.110Z,53622.88
2024-04-22T19:06:24.637Z,53627.44
2024-04-22T19:08:51.195Z,53632.82
2024-04-22T19:11:17.691Z,53651.05
2024-04-22T19:13:44.777Z,53641.93
2024-04-22T19:16:11.361Z,53659.33
2024-04-22T19:18:37.847Z,53640.70
2024-04-22T19:21:04.529Z,53628.68
2024-04-22T19:23:31.021Z,53632.41
2024-04-22T19:25:57.545Z,53633.24
2024-04-22T19:28:26.037Z,53644.01
2024-04-22T19:30:56.262Z,53639.86
2024-04-22T19:33:22.831Z,53642.76
2024-04-22T19:35:50.687Z,53633.65
2024-04-22T19:38:17.243Z,53639.04
2024-04-22T19:40:44.252Z,53639.86
2024-04-22T19:43:12.425Z,53647.32
2024-04-22T19:45:38.948Z,53640.27
2024-04-22T19:48:06.103Z,53627.44
2024-04-22T19:50:32.599Z,53640.70
2024-04-22T19:52:59.246Z,53634.06
2024-04-22T19:55:25.810Z,53632.41
2024-04-22T19:57:53.551Z,53637.79
2024-04-22T20:00:20.576Z,53643.59
2024-04-22T20:02:48.991Z,53642.76
2024-04-22T20:05:15.989Z,53679.21
2024-04-22T20:07:42.583Z,53653.53
2024-04-22T20:10:09.198Z,53647.73
2024-04-22T20:12:35.705Z,53659.74
2024-04-22T20:15:04.693Z,53664.30
2024-04-22T20:18:03.341Z,53664.30
2024-04-22T20:20:55.627Z,53513.96
2024-04-22T20:23:22.423Z,53643.18
2024-04-22T20:25:56.130Z,53648.14
2024-04-22T20:28:24.340Z,53649.39
2024-04-22T20:30:50.743Z,53646.91
2024-04-22T23:03:05.976Z,53386.81
2024-04-22T23:05:31.845Z,53590.57
2024-04-22T23:07:57.883Z,53607.55
2024-04-22T23:10:23.865Z,53586.44
2024-04-22T23:12:49.879Z,53595.96
2024-04-22T23:15:15.754Z,53590.99
2024-04-22T23:17:41.633Z,53580.64
2024-04-22T23:20:07.884Z,53578.15
2024-04-22T23:22:33.944Z,53576.49
2024-04-22T23:24:59.823Z,53574.84
2024-04-22T23:27:25.735Z,53589.33
2024-04-22T23:29:51.701Z,53577.74
2024-04-22T23:32:17.529Z,53595.13
2024-04-22T23:34:43.479Z,53589.34
2024-04-22T23:37:09.439Z,53585.19
2024-04-22T23:39:35.385Z,53579.39
2024-04-22T23:42:01.241Z,53566.14
2024-04-22T23:44:27.141Z,53573.59
2024-04-22T23:46:55.561Z,53586.02
2024-04-22T23:49:22.315Z,53580.63
2024-04-22T23:51:48.789Z,53573.59
2024-04-22T23:54:14.818Z,53566.14
2024-04-22T23:56:40.668Z,53577.74
2024-04-22T23:59:07.080Z,53577.74
